Time;durP1;ratioP1;P1;durP2;ratioP2;P2;SDS_P1;SDS_P2;PMS_P1;PMS_P2;Temp;Humidity;BMP_temperature;BMP_pressure;BME280_temperature;BME280_humidity;BME280_pressure;Samples;Min_cycle;Max_cycle;Signal;HPM_P1;HPM_P2
2023/05/26 00:02:06;;;;;;;;;;;;;;;14.66;100.00;100075.22;5032336;28;19944;-75
2023/05/26 00:04:44;;;;;;;;;;;;;;;14.65;100.00;100081.53;5032800;28;19928;-74
2023/05/26 00:07:10;;;;;;;;;;;;;;;14.61;100.00;100088.13;5030718;28;19979;-74
2023/05/26 00:09:35;;;;;;;;;;;;;;;14.54;100.00;100087.09;5032491;28;20364;-75
2023/05/26 00:12:01;;;;;;;;;;;;;;;14.52;100.00;100088.22;5031830;28;20415;-74
2023/05/26 00:14:26;;;;;;;;;;;;;;;14.43;100.00;100081.22;5030536;28;20289;-75
2023/05/26 00:16:53;;;;;;;;;;;;;;;14.38;100.00;100078.16;5032425;28;19990;-74
2023/05/26 00:19:19;;;;;;;;;;;;;;;14.31;100.00;100078.72;5032245;28;19921;-74
2023/05/26 00:21:45;;;;;;;;;;;;;;;14.28;100.00;100084.38;5031319;28;19928;-73
2023/05/26 00:24:10;;;;;;;;;;;;;;;14.28;100.00;100087.03;5030641;28;19925;-74
2023/05/26 00:26:36;;;;;;;;;;;;;;;14.29;100.00;100091.34;5032251;28;19921;-74
2023/05/26 00:29:01;;;;;;;;;;;;;;;14.28;100.00;100088.84;5031201;28;19921;-74
2023/05/26 00:31:27;;;;;;;;;;;;;;;14.20;100.00;100076.31;5032185;28;19928;-75
2023/05/26 00:33:52;;;;;;;;;;;;;;;14.13;100.00;100075.28;5030942;28;19921;-75
2023/05/26 00:36:18;;;;;;;;;;;;;;;14.07;100.00;100072.41;5031786;28;20334;-75
2023/05/26 00:38:43;;;;;;;;;;;;;;;14.04;100.00;100070.88;5031888;28;19936;-75
2023/05/26 00:41:08;;;;;;;;;;;;;;;14.05;100.00;100066.41;5030209;28;19921;-74
2023/05/26 00:43:34;;;;;;;;;;;;;;;14.00;100.00;100056.25;5032013;28;19921;-74
2023/05/26 00:45:59;;;;;;;;;;;;;;;14.00;100.00;100052.78;5031772;28;19936;-74
2023/05/26 00:48:24;;;;;;;;;;;;;;;13.95;100.00;100050.59;5031584;28;19929;-75
2023/05/26 00:50:50;;;;;;;;;;;;;;;13.97;100.00;100053.91;5030545;28;19956;-75
2023/05/26 00:53:16;;;;;;;;;;;;;;;13.97;100.00;100053.91;5031328;28;19940;-74
2023/05/26 00:55:43;;;;;;;;;;;;;;;13.99;100.00;100053.75;5031808;28;19943;-74
2023/05/26 00:58:09;;;;;;;;;;;;;;;14.02;100.00;100051.63;5029853;28;20108;-75
2023/05/26 01:00:35;;;;;;;;;;;;;;;13.99;100.00;100046.63;5029279;28;19959;-75
2023/05/26 01:03:03;;;;;;;;;;;;;;;13.94;100.00;100046.25;5029944;28;19925;-74
2023/05/26 01:05:29;;;;;;;;;;;;;;;13.86;100.00;100043.53;5030039;28;19920;-75
2023/05/26 01:07:54;;;;;;;;;;;;;;;13.81;100.00;100043.16;5031839;28;19936;-75
2023/05/26 01:10:20;;;;;;;;;;;;;;;13.71;100.00;100047.69;5030612;28;19921;-75
2023/05/26 01:13:01;;;;;;;;;;;;;;;13.60;100.00;100055.88;5030286;28;19925;-74
2023/05/26 01:15:32;;;;;;;;;;;;;;;13.56;100.00;100049.19;5031514;28;19928;-74
2023/05/26 01:18:06;;;;;;;;;;;;;;;13.55;100.00;100058.94;5031896;28;19921;-74
2023/05/26 01:20:39;;;;;;;;;;;;;;;13.50;100.00;100059.41;5031346;28;19932;-74
2023/05/26 01:23:34;;;;;;;;;;;;;;;13.52;100.00;100060.09;5027787;28;19921;-73
2023/05/26 01:26:15;;;;;;;;;;;;;;;13.55;100.00;100055.50;5026494;28;19925;-74
2023/05/26 01:28:42;;;;;;;;;;;;;;;13.54;100.00;100057.31;5028388;28;20383;-74
2023/05/26 01:31:08;;;;;;;;;;;;;;;13.52;100.00;100053.97;5031539;28;20404;-75
2023/05/26 01:33:35;;;;;;;;;;;;;;;13.53;100.00;100056.47;5031978;28;20281;-75
2023/05/26 01:36:03;;;;;;;;;;;;;;;13.56;100.00;100044.72;5031141;28;19921;-73
2023/05/26 01:38:28;;;;;;;;;;;;;;;13.59;100.00;100043.59;5029528;28;19921;-75
2023/05/26 01:41:00;;;;;;;;;;;;;;;13.57;100.00;100042.91;5031334;28;20385;-75
2023/05/26 01:43:34;;;;;;;;;;;;;;;13.55;100.00;100044.88;5030685;28;20012;-75
2023/05/26 01:46:10;;;;;;;;;;;;;;;13.57;100.00;100042.91;5031369;28;19983;-73
2023/05/26 01:48:37;;;;;;;;;;;;;;;13.56;100.00;100050.03;5026290;28;20019;-73
2023/05/26 01:51:04;;;;;;;;;;;;;;;13.62;100.00;100037.97;5031402;28;19925;-72
2023/05/26 01:53:30;;;;;;;;;;;;;;;13.60;100.00;100039.97;5030848;28;19929;-73
2023/05/26 01:55:57;;;;;;;;;;;;;;;13.47;100.00;100037.69;5031272;28;19964;-73
2023/05/26 01:58:26;;;;;;;;;;;;;;;13.38;100.00;100038.56;5031026;28;19921;-72
2023/05/26 02:00:52;;;;;;;;;;;;;;;13.30;100.00;100039.31;5029556;28;20008;-73
2023/05/26 02:03:17;;;;;;;;;;;;;;;13.15;100.00;100037.28;5029705;28;19967;-74
2023/05/26 02:05:43;;;;;;;;;;;;;;;13.11;100.00;100039.38;5029940;28;19921;-73
2023/05/26 02:08:09;;;;;;;;;;;;;;;13.08;100.00;100034.34;5029733;28;19921;-73
2023/05/26 02:10:35;;;;;;;;;;;;;;;12.91;100.00;100049.22;5027833;28;20019;-73
2023/05/26 02:13:02;;;;;;;;;;;;;;;12.87;100.00;100042.56;5046959;22;19964;-87
2023/05/26 02:15:29;;;;;;;;;;;;;;;12.78;100.00;100039.94;4998285;28;19987;-89
2023/05/26 02:17:57;;;;;;;;;;;;;;;12.66;100.00;100037.44;5021852;28;19936;-87
2023/05/26 02:20:23;;;;;;;;;;;;;;;12.64;100.00;100036.78;5029892;28;19921;-88
2023/05/26 02:22:48;;;;;;;;;;;;;;;12.62;100.00;100036.09;5031891;28;20337;-88
2023/05/26 02:25:14;;;;;;;;;;;;;;;12.67;100.00;100036.47;5017601;28;19986;-89
2023/05/26 02:27:39;;;;;;;;;;;;;;;12.67;100.00;100036.47;5031992;28;19936;-87
2023/05/26 02:30:06;;;;;;;;;;;;;;;12.69;100.00;100028.41;5031121;28;19924;-87
2023/05/26 02:32:31;;;;;;;;;;;;;;;12.75;100.00;100029.63;5034952;28;19928;-88
2023/05/26 02:34:58;;;;;;;;;;;;;;;12.77;100.00;100033.81;5035047;28;19944;-88
2023/05/26 02:37:26;;;;;;;;;;;;;;;12.79;100.00;100033.66;5034814;28;19990;-88
2023/05/26 02:39:52;;;;;;;;;;;;;;;12.76;100.00;100031.31;5035200;28;19928;-88
2023/05/26 02:42:18;;;;;;;;;;;;;;;12.71;100.00;100021.16;5016902;28;19921;-88
2023/05/26 02:44:43;;;;;;;;;;;;;;;12.71;100.00;100029.94;5019432;28;20270;-87
2023/05/26 02:47:08;;;;;;;;;;;;;;;12.67;100.00;100033.84;5034431;28;19953;-87
2023/05/26 02:49:34;;;;;;;;;;;;;;;12.67;100.00;100025.88;5034886;28;19965;-88
2023/05/26 02:51:59;;;;;;;;;;;;;;;12.69;100.00;100023.94;5025755;28;19936;-88
2023/05/26 02:54:24;;;;;;;;;;;;;;;12.69;100.00;100023.94;5021711;28;20773;-88
2023/05/26 02:56:50;;;;;;;;;;;;;;;12.69;100.00;100023.09;5017213;28;19927;-87
2023/05/26 02:59:15;;;;;;;;;;;;;;;12.71;100.00;100015.84;5000995;28;20054;-88
2023/05/26 03:01:41;;;;;;;;;;;;;;;12.73;100.00;100030.59;5030909;28;19968;-87
2023/05/26 03:04:06;;;;;;;;;;;;;;;12.71;100.00;100029.94;5034203;28;19924;-88
2023/05/26 03:06:34;;;;;;;;;;;;;;;12.69;100.00;100026.59;5020787;28;19925;-88
2023/05/26 03:09:00;;;;;;;;;;;;;;;12.68;100.00;100032.84;5045934;28;19936;-88
2023/05/26 03:11:25;;;;;;;;;;;;;;;12.66;100.00;100032.16;5041325;28;19928;-89
2023/05/26 03:13:51;;;;;;;;;;;;;;;12.58;100.00;100032.06;5038946;28;20033;-88
2023/05/26 03:16:17;;;;;;;;;;;;;;;12.53;100.00;100034.31;5034377;28;19932;-89
2023/05/26 03:18:43;;;;;;;;;;;;;;;12.55;100.00;100021.75;5031988;28;19921;-88
2023/05/26 03:21:09;;;;;;;;;;;;;;;12.54;100.00;100030.69;5057716;28;19927;-88
2023/05/26 03:23:34;;;;;;;;;;;;;;;12.51;100.00;100038.06;5044151;28;20026;-87
2023/05/26 03:26:01;;;;;;;;;;;;;;;12.56;100.00;100039.31;5033849;28;19921;-88
2023/05/26 03:28:30;;;;;;;;;;;;;;;12.62;100.00;100038.72;5041417;28;20006;-89
2023/05/26 03:30:57;;;;;;;;;;;;;;;12.67;100.00;100044.41;5016339;28;19940;-88
2023/05/26 03:33:24;;;;;;;;;;;;;;;12.70;100.00;100036.22;5044828;28;20003;-89
2023/05/26 03:35:50;;;;;;;;;;;;;;;12.75;100.00;100032.28;5015996;28;19992;-89
2023/05/26 03:38:15;;;;;;;;;;;;;;;12.72;100.00;100033.41;5015658;28;19960;-89
2023/05/26 03:40:42;;;;;;;;;;;;;;;12.71;100.00;100037.03;5044757;28;19968;-89
2023/05/26 03:43:07;;;;;;;;;;;;;;;12.66;100.00;100045.41;5017855;28;20427;-87
2023/05/26 03:45:41;;;;;;;;;;;;;;;12.58;100.00;100045.31;5013779;28;20073;-89
2023/05/26 03:48:08;;;;;;;;;;;;;;;12.62;100.00;100044.03;5012886;28;19925;-88
2023/05/26 03:50:33;;;;;;;;;;;;;;;12.49;100.00;100042.66;5032930;28;20263;-89
2023/05/26 03:52:59;;;;;;;;;;;;;;;12.42;100.00;100053.00;5016431;28;19927;-89
2023/05/26 03:55:24;;;;;;;;;;;;;;;12.40;100.00;100049.66;5008608;28;19928;-88
2023/05/26 03:57:50;;;;;;;;;;;;;;;12.44;100.00;100045.75;5016184;28;19978;-87
2023/05/26 04:00:16;;;;;;;;;;;;;;;12.47;100.00;100049.94;5007606;28;19924;-89
2023/05/26 04:02:44;;;;;;;;;;;;;;;12.36;100.00;100048.28;5026106;28;20478;-89
2023/05/26 04:05:09;;;;;;;;;;;;;;;12.26;100.00;100060.66;5003745;28;19925;-88
2023/05/26 04:07:35;;;;;;;;;;;;;;;12.25;100.00;100059.03;5018531;28;20008;-87
2023/05/26 04:10:00;;;;;;;;;;;;;;;12.21;100.00;100054.97;5028578;28;19928;-88
2023/05/26 04:12:26;;;;;;;;;;;;;;;12.16;100.00;100058.03;5013651;28;19929;-88
2023/05/26 04:14:51;;;;;;;;;;;;;;;12.13;100.00;100058.34;5033287;28;19927;-89
2023/05/26 04:17:16;;;;;;;;;;;;;;;12.19;100.00;100063.03;5038352;28;19921;-88
2023/05/26 04:19:43;;;;;;;;;;;;;;;12.15;100.00;100063.47;5030486;28;19967;-89
2023/05/26 04:22:09;;;;;;;;;;;;;;;12.11;100.00;100064.72;5045780;28;19921;-88
2023/05/26 04:24:35;;;;;;;;;;;;;;;12.08;100.00;100067.66;5037631;28;19909;-88
2023/05/26 04:27:01;;;;;;;;;;;;;;;12.13;100.00;100068.94;5035856;28;19921;-89
2023/05/26 04:29:36;;;;;;;;;;;;;;;12.19;100.00;100068.34;5002259;28;19925;-88
2023/05/26 04:32:16;;;;;;;;;;;;;;;12.09;100.00;100066.69;5032610;28;19943;-89
2023/05/26 04:35:01;;;;;;;;;;;;;;;12.12;100.00;100071.69;5034074;28;20285;-89
2023/05/26 04:37:38;;;;;;;;;;;;;;;12.19;100.00;100072.81;5012557;28;20451;-87
2023/05/26 04:40:06;;;;;;;;;;;;;;;12.23;100.00;100064.44;5025859;28;19936;-89
2023/05/26 04:42:33;;;;;;;;;;;;;;;12.30;100.00;100064.72;5030865;28;19949;-89
2023/05/26 04:45:00;;;;;;;;;;;;;;;12.40;100.00;100065.53;5031713;28;19941;-89
2023/05/26 04:47:27;;;;;;;;;;;;;;;12.37;100.00;100065.81;5024326;28;19929;-90
2023/05/26 04:49:52;;;;;;;;;;;;;;;12.41;100.00;100066.38;5015546;28;20381;-88
2023/05/26 04:52:18;;;;;;;;;;;;;;;12.48;100.00;100073.63;5041461;28;19929;-88
2023/05/26 04:54:44;;;;;;;;;;;;;;;12.55;100.00;100069.41;5019602;28;19922;-89
2023/05/26 04:57:09;;;;;;;;;;;;;;;12.59;100.00;100076.09;5020595;28;19925;-88
2023/05/26 04:59:44;;;;;;;;;;;;;;;12.68;100.00;100077.88;5036900;28;20285;-88
2023/05/26 05:02:10;;;;;;;;;;;;;;;12.71;100.00;100074.94;5034766;28;19921;-89
2023/05/26 05:04:52;;;;;;;;;;;;;;;12.75;100.00;100074.66;5036063;28;19921;-90
2023/05/26 05:07:18;;;;;;;;;;;;;;;12.81;100.00;100084.66;5034770;28;20141;-88
2023/05/26 05:09:43;;;;;;;;;;;;;;;12.90;100.00;100083.81;5034166;28;19933;-89
2023/05/26 05:12:09;;;;;;;;;;;;;;;12.99;100.00;100082.94;5022458;28;19921;-89
2023/05/26 05:14:36;;;;;;;;;;;;;;;13.08;100.00;100087.34;5031574;28;19921;-88
2023/05/26 05:17:03;;;;;;;;;;;;;;;13.13;100.00;100084.31;5017630;28;19925;-89
2023/05/26 05:19:30;;;;;;;;;;;;;;;13.20;100.00;100088.88;5025368;28;19923;-91
2023/05/26 05:21:55;;;;;;;;;;;;;;;13.29;100.00;100090.66;5044965;28;19925;-89
2023/05/26 05:24:20;;;;;;;;;;;;;;;13.36;100.00;100086.44;5029370;28;19921;-88
2023/05/26 05:26:46;;;;;;;;;;;;;;;13.46;100.00;100087.22;5018876;28;19967;-89
2023/05/26 05:29:14;;;;;;;;;;;;;;;13.56;100.00;100088.97;5027281;28;20389;-90
2023/05/26 05:31:42;;;;;;;;;;;;;;;13.59;100.00;100093.97;5040620;28;20321;-89
2023/05/26 05:34:07;;;;;;;;;;;;;;;13.62;100.00;100085.72;5036838;28;19921;-89
2023/05/26 05:36:33;;;;;;;;;;;;;;;13.69;100.00;100089.44;5030428;28;19956;-91
2023/05/26 05:38:58;;;;;;;;;;;;;;;13.77;100.00;100092.19;5028087;28;19921;-89
2023/05/26 05:41:24;;;;;;;;;;;;;;;13.87;100.00;100095.59;5036618;28;20393;-88
2023/05/26 05:43:50;;;;;;;;;;;;;;;13.91;100.00;100096.94;5026485;28;20023;-90
2023/05/26 05:46:16;;;;;;;;;;;;;;;14.02;100.00;100104.69;5015587;28;19932;-90
2023/05/26 05:48:53;;;;;;;;;;;;;;;14.10;100.00;100090.66;5009028;28;20344;-91
2023/05/26 05:51:25;;;;;;;;;;;;;;;14.20;100.00;100096.72;5031194;28;19937;-90
2023/05/26 05:53:51;;;;;;;;;;;;;;;14.27;100.00;100101.28;5033706;28;19921;-90
2023/05/26 05:56:16;;;;;;;;;;;;;;;14.37;100.00;100108.34;5032114;28;19921;-90
2023/05/26 05:58:42;;;;;;;;;;;;;;;14.46;100.00;100102.13;5014492;28;19921;-90
2023/05/26 06:01:07;;;;;;;;;;;;;;;14.56;100.00;100111.66;5014670;28;19932;-90
2023/05/26 06:03:34;;;;;;;;;;;;;;;14.64;100.00;100116.22;5032726;28;19967;-90
2023/05/26 06:06:00;;;;;;;;;;;;;;;14.72;100.00;100121.59;5036617;28;19925;-90
2023/05/26 06:08:25;;;;;;;;;;;;;;;14.82;100.00;100119.66;5050787;28;19921;-90
2023/05/26 06:10:50;;;;;;;;;;;;;;;14.91;100.00;100116.03;5018636;28;20004;-91
2023/05/26 06:13:16;;;;;;;;;;;;;;;14.87;100.00;100117.34;5024888;28;19928;-90
2023/05/26 06:15:41;;;;;;;;;;;;;;;14.99;100.00;100107.31;5035334;28;20007;-90
2023/05/26 06:18:07;;;;;;;;;;;;;;;14.93;100.00;100116.72;5032438;28;20008;-91
2023/05/26 06:20:32;;;;;;;;;;;;;;;15.02;100.00;100115.78;5035198;28;19928;-92
2023/05/26 06:22:58;;;;;;;;;;;;;;;14.97;100.00;100118.06;5031134;28;19928;-89
2023/05/26 06:25:23;;;;;;;;;;;;;;;14.92;100.00;100123.03;5036086;28;19913;-90
2023/05/26 06:27:49;;;;;;;;;;;;;;;14.99;100.00;100121.41;5038819;28;19921;-90
2023/05/26 06:30:15;;;;;;;;;;;;;;;15.15;100.00;100125.97;5031454;28;19967;-89
2023/05/26 06:32:44;;;;;;;;;;;;;;;15.26;100.00;100127.53;5023020;28;20405;-92
2023/05/26 06:35:10;;;;;;;;;;;;;;;15.35;100.00;100116.78;5034701;28;19921;-90
2023/05/26 06:37:35;;;;;;;;;;;;;;;15.43;100.00;100129.31;5034002;28;20448;-88
2023/05/26 06:40:00;;;;;;;;;;;;;;;15.51;100.00;100130.16;5035500;28;20433;-92
2023/05/26 06:42:32;;;;;;;;;;;;;;;15.51;100.00;100131.97;5037874;28;19943;-91
2023/05/26 06:44:57;;;;;;;;;;;;;;;15.57;100.00;100134.03;5042096;28;19920;-91
2023/05/26 06:47:23;;;;;;;;;;;;;;;15.55;100.00;100133.38;5035308;28;19940;-90
2023/05/26 06:49:49;;;;;;;;;;;;;;;15.60;100.00;100131.06;5034935;28;20475;-90
2023/05/26 06:52:16;;;;;;;;;;;;;;;15.72;100.00;100129.78;5048451;28;20408;-90
2023/05/26 06:54:42;;;;;;;;;;;;;;;15.87;100.00;100132.63;5020284;28;19929;-89
2023/05/26 06:57:07;;;;;;;;;;;;;;;16.00;100.00;100132.16;5020973;28;19928;-91
2023/05/26 06:59:32;;;;;;;;;;;;;;;16.11;100.00;100134.50;5038741;28;19917;-88
2023/05/26 07:01:58;;;;;;;;;;;;;;;16.23;100.00;100138.50;5036076;28;19921;-91
2023/05/26 07:04:24;;;;;;;;;;;;;;;16.32;100.00;100138.34;5039801;28;19947;-83
2023/05/26 07:06:49;;;;;;;;;;;;;;;16.36;100.00;100139.69;5034888;28;19917;-84
2023/05/26 07:09:19;;;;;;;;;;;;;;;16.36;100.00;100133.53;5042529;28;20015;-88
2023/05/26 07:11:56;;;;;;;;;;;;;;;16.42;100.00;100135.53;5018116;28;19919;-91
2023/05/26 07:14:46;;;;;;;;;;;;;;;16.57;100.00;100141.03;5031943;28;20016;-90
2023/05/26 07:17:13;;;;;;;;;;;;;;;16.66;100.00;100146.22;5020222;28;19922;-88
2023/05/26 07:19:39;;;;;;;;;;;;;;;16.70;100.00;100142.22;5051493;28;20007;-90
2023/05/26 07:22:05;;;;;;;;;;;;;;;16.71;100.00;100143.88;5018535;28;19997;-86
2023/05/26 07:24:34;;;;;;;;;;;;;;;16.75;100.00;100145.22;5018103;28;20003;-84
2023/05/26 07:27:00;;;;;;;;;;;;;;;16.84;100.00;100153.22;5037406;28;19968;-95
2023/05/26 07:29:29;;;;;;;;;;;;;;;16.88;100.00;100144.69;5037559;28;19980;-92
2023/05/26 07:31:54;;;;;;;;;;;;;;;17.00;100.00;100142.50;5030478;28;19948;-93
2023/05/26 07:34:21;;;;;;;;;;;;;;;17.03;100.00;100144.81;5010244;28;19947;-94
2023/05/26 07:36:46;;;;;;;;;;;;;;;17.12;100.00;100143.81;5026541;28;20032;-92
2023/05/26 07:39:12;;;;;;;;;;;;;;;17.22;100.00;100147.13;5037522;28;19967;-94
2023/05/26 07:41:38;;;;;;;;;;;;;;;17.20;100.00;100147.28;5041537;28;19945;-95
2023/05/26 07:44:03;;;;;;;;;;;;;;;17.31;100.00;100143.44;5002531;28;19925;-92
2023/05/26 07:46:28;;;;;;;;;;;;;;;17.44;100.00;100141.03;5027907;28;19922;-94
2023/05/26 07:48:54;;;;;;;;;;;;;;;17.53;100.00;100140.00;5027170;28;20479;-95
2023/05/26 07:51:19;;;;;;;;;;;;;;;17.54;100.00;100140.84;5042127;28;19927;-94
2023/05/26 07:53:45;;;;;;;;;;;;;;;17.59;100.00;100144.66;5047242;28;20455;-92
2023/05/26 07:56:10;;;;;;;;;;;;;;;17.66;100.00;100139.50;5052481;28;19920;-92
2023/05/26 07:58:38;;;;;;;;;;;;;;;17.74;100.00;100146.59;5044311;28;20385;-93
2023/05/26 08:01:06;;;;;;;;;;;;;;;17.78;100.00;100137.28;5024194;28;19921;-94
2023/05/26 08:03:32;;;;;;;;;;;;;;;17.87;100.00;100147.72;5038710;28;19980;-94
2023/05/26 08:05:58;;;;;;;;;;;;;;;17.95;100.00;100138.84;5005206;28;20434;-95
2023/05/26 08:08:24;;;;;;;;;;;;;;;18.04;100.00;100143.09;5020597;28;20016;-92
2023/05/26 08:10:49;;;;;;;;;;;;;;;18.09;100.00;100140.75;5017239;28;19972;-94
2023/05/26 08:13:15;;;;;;;;;;;;;;;18.17;100.00;100135.34;5034176;28;20361;-92
2023/05/26 08:15:40;;;;;;;;;;;;;;;18.27;100.00;100132.44;5037833;28;19920;-93
2023/05/26 08:18:06;;;;;;;;;;;;;;;18.36;100.00;100134.06;5021733;28;20443;-94
2023/05/26 08:20:31;;;;;;;;;;;;;;;18.40;100.00;100130.00;5034832;28;20293;-94
2023/05/26 08:22:58;;;;;;;;;;;;;;;18.41;100.00;100135.19;5037030;28;19921;-93
2023/05/26 08:25:24;;;;;;;;;;;;;;;18.44;100.00;100123.28;5026647;28;20390;-94
2023/05/26 08:27:51;;;;;;;;;;;;;;;18.45;100.00;100124.13;5019855;28;19921;-93
2023/05/26 08:30:16;;;;;;;;;;;;;;;18.56;100.00;100129.88;5037846;28;19932;-94
2023/05/26 08:32:41;;;;;;;;;;;;;;;18.60;100.00;100128.53;5021546;28;19960;-94
2023/05/26 08:35:07;;;;;;;;;;;;;;;18.68;100.00;100124.94;5037655;28;20020;-93
2023/05/26 08:37:32;;;;;;;;;;;;;;;18.78;100.00;100121.03;5052724;28;20329;-93
2023/05/26 08:39:58;;;;;;;;;;;;;;;18.80;100.00;100118.16;5036772;28;19921;-95
2023/05/26 08:42:27;;;;;;;;;;;;;;;18.86;100.00;100122.78;5036381;28;19932;-94
2023/05/26 08:44:52;;;;;;;;;;;;;;;18.96;100.00;100118.00;5029571;28;19928;-93
2023/05/26 08:47:18;;;;;;;;;;;;;;;18.99;100.00;100112.28;5049206;28;19921;-92
2023/05/26 08:49:52;;;;;;;;;;;;;;;19.02;100.00;100106.56;5037397;28;19921;-92
2023/05/26 08:52:18;;;;;;;;;;;;;;;19.10;100.00;100109.16;5032771;28;20008;-94
2023/05/26 08:54:44;;;;;;;;;;;;;;;19.18;100.00;100111.75;5035896;28;19937;-94
2023/05/26 08:57:12;;;;;;;;;;;;;;;19.27;100.00;100103.59;5035989;28;19924;-93
2023/05/26 08:59:39;;;;;;;;;;;;;;;19.35;100.00;100107.03;5035626;28;19921;-95
2023/05/26 09:02:04;;;;;;;;;;;;;;;19.41;100.00;100097.41;5036282;28;19921;-94
2023/05/26 09:04:30;;;;;;;;;;;;;;;19.49;100.00;100108.91;5034224;28;19925;-91
2023/05/26 09:06:55;;;;;;;;;;;;;;;19.56;100.00;100108.94;5033739;28;19932;-92
2023/05/26 09:09:21;;;;;;;;;;;;;;;19.62;100.00;100108.19;5035436;28;19922;-93
2023/05/26 09:11:46;;;;;;;;;;;;;;;19.69;100.00;100106.44;5052965;28;19928;-93
2023/05/26 09:14:13;;;;;;;;;;;;;;;19.77;100.00;100102.84;5052210;28;19985;-92
2023/05/26 09:16:39;;;;;;;;;;;;;;;19.83;100.00;100100.22;5051747;28;19936;-92
2023/05/26 09:19:04;;;;;;;;;;;;;;;19.90;100.00;100100.31;5053538;28;19976;-93
2023/05/26 09:21:30;;;;;;;;;;;;;;;19.94;100.00;100090.88;5050464;28;19928;-93
2023/05/26 09:23:57;;;;;;;;;;;;;;;19.98;100.00;100098.31;5036998;28;19921;-93
2023/05/26 09:26:30;;;;;;;;;;;;;;;20.05;100.00;100087.69;5049205;28;19979;-93
2023/05/26 09:28:55;;;;;;;;;;;;;;;20.10;100.00;100095.13;5047261;28;19933;-93
2023/05/26 09:31:22;;;;;;;;;;;;;;;20.15;100.00;100096.22;5034942;28;19928;-92
2023/05/26 09:33:47;;;;;;;;;;;;;;;20.22;100.00;100098.97;5050760;28;20019;-94
2023/05/26 09:36:15;;;;;;;;;;;;;;;20.29;100.00;100094.50;5034829;28;19979;-94
2023/05/26 09:38:43;;;;;;;;;;;;;;;20.35;100.00;100094.59;5025380;28;19922;-91
2023/05/26 09:41:09;;;;;;;;;;;;;;;20.41;100.00;100093.00;5022836;28;19921;-94
2023/05/26 09:43:36;;;;;;;;;;;;;;;20.48;100.00;100091.22;5020109;28;19976;-93
2023/05/26 09:46:05;;;;;;;;;;;;;;;20.53;100.00;100091.44;5024796;28;19977;-93
2023/05/26 09:48:32;;;;;;;;;;;;;;;20.57;100.00;100098.06;5034176;28;19926;-91
2023/05/26 09:50:57;;;;;;;;;;;;;;;20.64;100.00;100087.41;5021407;28;19991;-92
2023/05/26 09:53:23;;;;;;;;;;;;;;;20.69;100.00;100088.47;5028204;28;19929;-91
2023/05/26 09:55:50;;;;;;;;;;;;;;;20.75;100.00;100090.38;5049055;28;19921;-91
2023/05/26 09:58:16;;;;;;;;;;;;;;;20.80;100.00;100087.94;5053116;28;19928;-91
2023/05/26 10:00:42;;;;;;;;;;;;;;;20.89;100.00;100085.09;5048844;28;19921;-93
2023/05/26 10:03:09;;;;;;;;;;;;;;;20.98;100.00;100094.66;5040979;28;19921;-91
2023/05/26 10:05:39;;;;;;;;;;;;;;;21.02;100.00;100085.19;5041566;28;19921;-91
2023/05/26 10:08:05;;;;;;;;;;;;;;;21.05;100.00;100080.25;5045851;28;20034;-93
2023/05/26 10:10:31;;;;;;;;;;;;;;;21.08;100.00;100073.69;5047651;28;19929;-92
2023/05/26 10:12:57;;;;;;;;;;;;;;;21.18;100.00;100075.00;5050035;28;20032;-92
2023/05/26 10:15:22;;;;;;;;;;;;;;;21.30;100.00;100069.06;5058995;28;19953;-90
2023/05/26 10:17:48;;;;;;;;;;;;;;;21.40;100.00;100072.19;5058173;28;19921;-92
2023/05/26 10:20:14;;;;;;;;;;;;;;;21.51;100.00;100075.13;5053763;28;19928;-90
2023/05/26 10:22:58;;;;;;;;;;;;;;;21.56;100.00;100067.31;5038162;28;19928;-92
2023/05/26 10:25:27;;;;;;;;;;;;;;;21.60;100.00;100067.75;5061855;28;19924;-91
2023/05/26 10:28:02;;;;;;;;;;;;;;;21.62;100.00;100058.44;5029422;28;19921;-90
2023/05/26 10:30:27;;;;;;;;;;;;;;;21.72;100.00;100049.19;5046779;28;19921;-92
2023/05/26 10:32:54;;;;;;;;;;;;;;;21.81;98.94;100053.31;5038843;28;19967;-91
2023/05/26 10:35:33;;;;;;;;;;;;;;;21.84;99.88;100052.94;5022073;28;19921;-91
2023/05/26 10:38:02;;;;;;;;;;;;;;;21.85;99.89;100049.22;5021758;28;19928;-91
2023/05/26 10:40:30;;;;;;;;;;;;;;;21.86;99.65;100049.00;5036973;28;19932;-92
2023/05/26 10:43:12;;;;;;;;;;;;;;;21.88;100.00;100049.63;5037309;28;20430;-90
2023/05/26 10:45:45;;;;;;;;;;;;;;;21.91;100.00;100037.66;5031838;28;19924;-91
2023/05/26 10:48:10;;;;;;;;;;;;;;;21.98;100.00;100043.88;5034499;28;20031;-92
2023/05/26 10:50:54;;;;;;;;;;;;;;;22.00;100.00;100033.78;5034554;28;19925;-93
2023/05/26 10:53:20;;;;;;;;;;;;;;;22.05;100.00;100028.59;5027892;28;19925;-91
2023/05/26 10:55:54;;;;;;;;;;;;;;;22.09;100.00;100027.16;5020305;28;19921;-92
2023/05/26 10:58:35;;;;;;;;;;;;;;;22.20;98.92;100029.25;5033487;28;19927;-90
2023/05/26 11:01:04;;;;;;;;;;;;;;;22.23;99.51;100028.81;5001950;28;19927;-91
2023/05/26 11:03:33;;;;;;;;;;;;;;;22.25;99.96;100029.44;5034328;28;20071;-92
2023/05/26 11:05:59;;;;;;;;;;;;;;;22.35;97.01;100024.47;5037369;28;19917;-93
2023/05/26 11:08:24;;;;;;;;;;;;;;;22.37;99.78;100022.41;5036570;28;20255;-91
2023/05/26 11:11:00;;;;;;;;;;;;;;;22.43;99.76;100021.59;5035538;28;19924;-92
2023/05/26 11:13:47;;;;;;;;;;;;;;;22.53;98.99;100009.56;5035063;28;20391;-92
2023/05/26 11:16:25;;;;;;;;;;;;;;;22.60;98.79;100015.78;5031600;28;19943;-92
2023/05/26 11:18:52;;;;;;;;;;;;;;;22.70;98.21;100010.78;5034356;28;20005;-90
2023/05/26 11:21:19;;;;;;;;;;;;;;;22.84;96.28;100009.75;5016500;28;19917;-90
2023/05/26 11:23:46;;;;;;;;;;;;;;;22.87;95.58;100006.63;5028009;28;19921;-92
2023/05/26 11:26:12;;;;;;;;;;;;;;;22.87;94.11;100009.31;5018465;28;19957;-89
2023/05/26 11:28:44;;;;;;;;;;;;;;;22.90;95.43;100000.84;5014244;28;19922;-91
2023/05/26 11:31:10;;;;;;;;;;;;;;;23.03;90.90;100003.47;5029398;28;20412;-89
2023/05/26 11:33:36;;;;;;;;;;;;;;;23.10;88.49;100001.56;5017300;28;19928;-90
2023/05/26 11:36:20;;;;;;;;;;;;;;;23.14;89.90;99994.75;5030786;28;20023;-90
2023/05/26 11:38:47;;;;;;;;;;;;;;;23.22;90.48;99991.78;5014368;28;19944;-90
2023/05/26 11:41:14;;;;;;;;;;;;;;;23.37;90.72;99988.00;5033953;28;19968;-91
2023/05/26 11:43:39;;;;;;;;;;;;;;;23.44;89.83;99986.94;5016433;28;19927;-93
2023/05/26 11:46:10;;;;;;;;;;;;;;;23.61;88.60;99987.28;5036502;28;20343;-90
2023/05/26 11:48:39;;;;;;;;;;;;;;;23.73;85.42;99990.94;5036099;28;19944;-91
2023/05/26 11:51:08;;;;;;;;;;;;;;;23.77;86.11;99992.16;5038782;28;19921;-91
2023/05/26 11:53:34;;;;;;;;;;;;;;;23.82;85.39;99981.53;5023997;28;19921;-92
2023/05/26 11:56:00;;;;;;;;;;;;;;;23.87;84.43;99981.69;5042000;28;19928;-92
2023/05/26 11:58:25;;;;;;;;;;;;;;;23.93;84.48;99986.22;5042297;28;19985;-92
2023/05/26 12:00:55;;;;;;;;;;;;;;;24.05;82.28;99976.38;5028585;28;19931;-90
2023/05/26 12:03:21;;;;;;;;;;;;;;;24.18;82.69;99977.31;5045075;28;19921;-92
2023/05/26 12:05:46;;;;;;;;;;;;;;;24.37;82.90;99979.88;5045333;28;19966;-91
2023/05/26 12:08:11;;;;;;;;;;;;;;;24.56;79.52;99980.75;5045477;28;19921;-89
2023/05/26 12:10:40;;;;;;;;;;;;;;;24.78;81.55;99976.53;5026907;28;20008;-92
2023/05/26 12:13:06;;;;;;;;;;;;;;;25.06;78.75;99969.81;5040750;28;19917;-91
2023/05/26 12:15:31;;;;;;;;;;;;;;;25.30;77.35;99968.88;5045553;28;20341;-90
2023/05/26 12:17:57;;;;;;;;;;;;;;;25.49;75.95;99961.56;5039330;28;19975;-87
2023/05/26 12:20:23;;;;;;;;;;;;;;;25.72;76.40;99963.53;5042355;28;20381;-89
2023/05/26 12:22:50;;;;;;;;;;;;;;;25.86;73.03;99965.78;5040877;28;19928;-90
2023/05/26 12:25:22;;;;;;;;;;;;;;;25.94;70.93;99961.91;5041921;28;19921;-89
2023/05/26 12:27:48;;;;;;;;;;;;;;;26.12;71.11;99964.53;5044829;28;19976;-91
2023/05/26 12:30:18;;;;;;;;;;;;;;;26.19;68.04;99959.00;5046348;28;19937;-90